Time;durP1;ratioP1;P1;durP2;ratioP2;P2;SDS_P1;SDS_P2;PMS_P1;PMS_P2;Temp;Humidity;BMP_temperature;BMP_pressure;BME280_temperature;BME280_humidity;BME280_pressure;Samples;Min_cycle;Max_cycle;Signal;HPM_P1;HPM_P2
2021/05/11 00:00:42;;;;;;;10.30;4.60;;;;;;;;;;5109108;28;20050;-79
2021/05/11 00:03:07;;;;;;;11.33;4.97;;;;;;;;;;5107573;28;20394;-80
2021/05/11 00:05:33;;;;;;;10.30;5.00;;;;;;;;;;5115807;28;20036;-80
2021/05/11 00:07:58;;;;;;;9.80;5.00;;;;;;;;;;5106644;28;20085;-79
2021/05/11 00:10:24;;;;;;;10.53;5.40;;;;;;;;;;5114162;28;20031;-79
2021/05/11 00:12:49;;;;;;;10.07;5.00;;;;;;;;;;5116172;28;20035;-79
2021/05/11 00:15:15;;;;;;;9.13;4.97;;;;;;;;;;5111211;28;22262;-79
2021/05/11 00:17:41;;;;;;;9.63;5.07;;;;;;;;;;5109766;28;20031;-79
2021/05/11 00:20:06;;;;;;;11.20;5.37;;;;;;;;;;5113390;28;20049;-80
2021/05/11 00:22:31;;;;;;;12.33;5.60;;;;;;;;;;5115403;28;20031;-80
2021/05/11 00:24:57;;;;;;;10.70;4.97;;;;;;;;;;5113729;28;20493;-80
2021/05/11 00:27:22;;;;;;;10.93;4.70;;;;;;;;;;5102884;28;20027;-80
2021/05/11 00:29:47;;;;;;;11.13;5.20;;;;;;;;;;5099140;28;20040;-80
2021/05/11 00:32:13;;;;;;;10.20;5.33;;;;;;;;;;5112718;28;20062;-80
2021/05/11 00:34:38;;;;;;;9.33;5.00;;;;;;;;;;5110108;28;20040;-80
2021/05/11 00:37:03;;;;;;;9.47;4.87;;;;;;;;;;5113073;28;20123;-80
2021/05/11 00:39:28;;;;;;;11.10;5.50;;;;;;;;;;5104408;28;20042;-80
2021/05/11 00:41:54;;;;;;;13.93;5.43;;;;;;;;;;5108176;28;20682;-79
2021/05/11 00:44:20;;;;;;;9.97;4.73;;;;;;;;;;5112175;28;20081;-79
2021/05/11 00:46:54;;;;;;;9.90;5.17;;;;;;;;;;5104948;28;20039;-79
2021/05/11 00:49:19;;;;;;;11.47;4.67;;;;;;;;;;5115073;28;20027;-79
2021/05/11 00:51:45;;;;;;;11.60;5.23;;;;;;;;;;5106650;28;21694;-79
2021/05/11 00:54:10;;;;;;;10.53;4.77;;;;;;;;;;5114328;28;20019;-79
2021/05/11 00:56:36;;;;;;;12.07;5.17;;;;;;;;;;5109873;28;20020;-79
2021/05/11 00:59:02;;;;;;;9.73;4.83;;;;;;;;;;5102737;28;20035;-79
2021/05/11 01:01:27;;;;;;;8.70;4.63;;;;;;;;;;5112565;28;20039;-81
2021/05/11 01:03:52;;;;;;;8.33;3.97;;;;;;;;;;5126242;22;20109;-66
2021/05/11 01:06:17;;;;;;;8.60;3.77;;;;;;;;;;5087605;28;20024;-66
2021/05/11 01:08:43;;;;;;;7.53;3.83;;;;;;;;;;5093484;28;20035;-66
2021/05/11 01:11:08;;;;;;;7.60;3.50;;;;;;;;;;5092718;28;20114;-66
2021/05/11 01:13:33;;;;;;;8.17;3.40;;;;;;;;;;5091557;28;20059;-67
2021/05/11 01:15:59;;;;;;;6.63;3.27;;;;;;;;;;5091401;28;20085;-67
2021/05/11 01:18:31;;;;;;;6.90;3.30;;;;;;;;;;5092728;28;20127;-67
2021/05/11 01:21:02;;;;;;;;;;;;;;;;;;5088928;28;20035;-67
2021/05/11 01:26:20;;;;;;;6.17;3.17;;;;;;;;;;5091309;28;20058;-67
2021/05/11 01:29:01;;;;;;;5.70;3.17;;;;;;;;;;5090899;28;20108;-67
2021/05/11 01:52:52;;;;;;;7.80;3.40;;;;;;;;;;5089114;28;20078;-67
2021/05/11 01:58:24;;;;;;;7.50;3.20;;;;;;;;;;5087305;28;20032;-67
2021/05/11 02:22:44;;;;;;;8.57;3.47;;;;;;;;;;5109939;28;20046;-67
2021/05/11 02:25:10;;;;;;;9.40;3.60;;;;;;;;;;5105985;28;20031;-67
2021/05/11 02:27:36;;;;;;;6.80;3.20;;;;;;;;;;5105181;28;20472;-67
2021/05/11 02:30:07;;;;;;;6.20;3.00;;;;;;;;;;5103358;28;20101;-67
2021/05/11 02:32:32;;;;;;;8.37;3.47;;;;;;;;;;5110627;28;20462;-67
2021/05/11 02:34:58;;;;;;;8.83;4.03;;;;;;;;;;5109109;28;20038;-67
2021/05/11 02:37:23;;;;;;;8.37;4.30;;;;;;;;;;5109729;28;20062;-67
2021/05/11 02:39:48;;;;;;;6.90;3.30;;;;;;;;;;5104199;28;20032;-67
2021/05/11 02:42:14;;;;;;;7.20;3.03;;;;;;;;;;5111186;28;20058;-66
2021/05/11 02:44:45;;;;;;;7.30;3.70;;;;;;;;;;5102777;28;20031;-67
2021/05/11 02:47:11;;;;;;;6.75;3.35;;;;;;;;;;5103798;28;20031;-67
2021/05/11 02:49:43;;;;;;;7.60;3.30;;;;;;;;;;5110171;28;20030;-68
2021/05/11 02:52:08;;;;;;;7.13;3.45;;;;;;;;;;5111894;28;20015;-68
2021/05/11 02:54:33;;;;;;;7.27;3.37;;;;;;;;;;5106116;28;20070;-68
2021/05/11 02:56:59;;;;;;;6.70;3.40;;;;;;;;;;5111752;28;20078;-67
2021/05/11 02:59:24;;;;;;;7.83;3.53;;;;;;;;;;5108535;28;20023;-67
2021/05/11 03:01:49;;;;;;;9.20;3.17;;;;;;;;;;5114757;27;20029;-67
2021/05/11 03:04:14;;;;;;;6.80;3.40;;;;;;;;;;5111170;27;20064;-67
2021/05/11 03:06:40;;;;;;;5.93;3.13;;;;;;;;;;5110378;28;20032;-67
2021/05/11 03:09:05;;;;;;;7.60;3.17;;;;;;;;;;5100415;28;20426;-67
2021/05/11 03:11:30;;;;;;;6.80;3.13;;;;;;;;;;5107810;27;20023;-68
2021/05/11 03:13:56;;;;;;;8.00;3.13;;;;;;;;;;5114512;27;20047;-67
2021/05/11 03:16:23;;;;;;;6.40;3.00;;;;;;;;;;5113367;28;20476;-67
2021/05/11 03:18:49;;;;;;;5.60;2.50;;;;;;;;;;5114579;28;20508;-67
2021/05/11 03:21:14;;;;;;;7.03;3.07;;;;;;;;;;5104453;27;20030;-67
2021/05/11 03:23:39;;;;;;;6.70;2.90;;;;;;;;;;5112689;28;20028;-67
2021/05/11 03:26:05;;;;;;;6.40;2.37;;;;;;;;;;5112468;28;20107;-68
2021/05/11 03:28:30;;;;;;;5.87;2.60;;;;;;;;;;5108633;28;20043;-68
2021/05/11 03:30:55;;;;;;;5.87;2.83;;;;;;;;;;5102274;28;20038;-68
2021/05/11 03:33:20;;;;;;;6.90;2.90;;;;;;;;;;5113270;28;20534;-68
2021/05/11 03:35:47;;;;;;;6.60;2.60;;;;;;;;;;5107135;28;20031;-67
2021/05/11 03:38:12;;;;;;;7.57;2.87;;;;;;;;;;5111578;28;20038;-68
2021/05/11 03:40:37;;;;;;;6.60;2.83;;;;;;;;;;5114285;28;20471;-68
2021/05/11 03:43:11;;;;;;;5.97;2.70;;;;;;;;;;5112869;27;20524;-68
2021/05/11 03:45:41;;;;;;;4.53;2.27;;;;;;;;;;5113191;28;20024;-68
2021/05/11 03:48:06;;;;;;;5.33;2.10;;;;;;;;;;5112547;28;20028;-68
2021/05/11 03:50:31;;;;;;;10.53;3.77;;;;;;;;;;5100251;28;20110;-68
2021/05/11 03:52:57;;;;;;;5.53;2.60;;;;;;;;;;5113949;28;20131;-68
2021/05/11 03:55:22;;;;;;;13.20;4.27;;;;;;;;;;5109953;28;20500;-68
2021/05/11 03:57:47;;;;;;;5.00;2.67;;;;;;;;;;5112148;28;20495;-68
2021/05/11 04:00:13;;;;;;;5.43;2.30;;;;;;;;;;5109184;28;20020;-68
2021/05/11 04:02:38;;;;;;;5.20;2.00;;;;;;;;;;5110652;28;20024;-67
2021/05/11 04:05:08;;;;;;;5.70;2.23;;;;;;;;;;5108633;28;20079;-68
2021/05/11 04:07:33;;;;;;;4.20;2.00;;;;;;;;;;5112817;28;20054;-68
2021/05/11 04:10:01;;;;;;;8.03;2.23;;;;;;;;;;5109998;28;20035;-68
2021/05/11 04:12:39;;;;;;;6.83;2.50;;;;;;;;;;5107709;28;20553;-68
2021/05/11 04:17:48;;;;;;;4.50;2.00;;;;;;;;;;5111412;28;20027;-67
2021/05/11 04:20:13;;;;;;;6.07;2.30;;;;;;;;;;5106843;28;20028;-68
2021/05/11 04:22:39;;;;;;;6.43;2.10;;;;;;;;;;5110970;28;20032;-68
2021/05/11 04:25:04;;;;;;;3.60;1.80;;;;;;;;;;5105215;28;20463;-68
2021/05/11 04:27:30;;;;;;;5.83;2.07;;;;;;;;;;5109448;28;20055;-68
2021/05/11 04:29:59;;;;;;;6.17;2.37;;;;;;;;;;5107355;28;20032;-68
2021/05/11 04:32:25;;;;;;;4.97;1.60;;;;;;;;;;5109682;28;20458;-68
2021/05/11 04:34:50;;;;;;;5.03;2.20;;;;;;;;;;5109301;28;20035;-68
2021/05/11 04:37:15;;;;;;;7.53;2.97;;;;;;;;;;5107547;28;20035;-68
2021/05/11 04:39:41;;;;;;;6.70;2.20;;;;;;;;;;5094014;28;20019;-68
2021/05/11 04:42:06;;;;;;;5.30;2.57;;;;;;;;;;5111349;28;20024;-68
2021/05/11 04:44:32;;;;;;;5.97;1.90;;;;;;;;;;5109453;28;20032;-68
2021/05/11 04:47:07;;;;;;;4.10;1.57;;;;;;;;;;5102298;28;20023;-68
2021/05/11 04:49:33;;;;;;;4.83;2.10;;;;;;;;;;5106658;28;20034;-68
2021/05/11 04:51:58;;;;;;;6.03;2.20;;;;;;;;;;5105085;28;20483;-68
2021/05/11 04:54:24;;;;;;;6.60;2.17;;;;;;;;;;5107787;28;20035;-68
2021/05/11 04:56:49;;;;;;;4.40;2.10;;;;;;;;;;5110506;28;20023;-68
2021/05/11 04:59:15;;;;;;;4.40;1.90;;;;;;;;;;5111049;28;20051;-68
2021/05/11 05:01:42;;;;;;;4.73;1.60;;;;;;;;;;5104806;28;20512;-67
2021/05/11 05:04:10;;;;;;;6.27;1.87;;;;;;;;;;5109906;28;20070;-68
2021/05/11 05:06:35;;;;;;;3.37;1.50;;;;;;;;;;5105658;28;20032;-68
2021/05/11 05:09:00;;;;;;;4.47;1.60;;;;;;;;;;5108170;28;20038;-68
2021/05/11 05:11:26;;;;;;;4.80;1.60;;;;;;;;;;5110940;28;20031;-68
2021/05/11 05:13:51;;;;;;;4.90;1.70;;;;;;;;;;5110563;28;20559;-68
2021/05/11 05:16:16;;;;;;;5.40;1.93;;;;;;;;;;5112163;28;20032;-67
2021/05/11 05:18:41;;;;;;;5.00;2.10;;;;;;;;;;5111579;28;20032;-68
2021/05/11 05:21:08;;;;;;;7.77;1.90;;;;;;;;;;5104395;28;20028;-68
2021/05/11 05:23:43;;;;;;;6.67;1.50;;;;;;;;;;5111506;28;20107;-68
2021/05/11 05:26:11;;;;;;;5.70;1.50;;;;;;;;;;5110889;28;20026;-68
2021/05/11 05:28:41;;;;;;;4.63;1.43;;;;;;;;;;5112363;28;20020;-68
2021/05/11 05:31:07;;;;;;;6.70;1.90;;;;;;;;;;5108949;28;20487;-68
2021/05/11 05:33:33;;;;;;;5.37;2.07;;;;;;;;;;5111646;28;20050;-68
2021/05/11 05:35:58;;;;;;;4.93;2.10;;;;;;;;;;5105932;28;20020;-68
2021/05/11 05:38:24;;;;;;;6.23;1.73;;;;;;;;;;5110355;28;20050;-68
2021/05/11 05:40:56;;;;;;;4.07;1.70;;;;;;;;;;5104105;28;20015;-68
2021/05/11 05:43:21;;;;;;;5.30;1.40;;;;;;;;;;5106112;28;20030;-68
2021/05/11 05:45:47;;;;;;;2.83;1.40;;;;;;;;;;5107407;28;20023;-68
2021/05/11 05:48:12;;;;;;;4.80;1.70;;;;;;;;;;5111060;28;20028;-68
2021/05/11 05:50:37;;;;;;;2.97;1.53;;;;;;;;;;5107625;28;20063;-68
2021/05/11 05:53:05;;;;;;;3.97;1.50;;;;;;;;;;5106882;28;20023;-68
2021/05/11 05:55:30;;;;;;;3.50;1.70;;;;;;;;;;5100280;28;20092;-68
2021/05/11 05:57:56;;;;;;;4.73;1.70;;;;;;;;;;5109577;28;20023;-67
2021/05/11 06:00:22;;;;;;;2.97;1.63;;;;;;;;;;5104480;28;20422;-68
2021/05/11 06:02:51;;;;;;;4.23;1.60;;;;;;;;;;5093380;28;20031;-68
2021/05/11 06:05:16;;;;;;;3.40;1.40;;;;;;;;;;5081427;28;20048;-68
2021/05/11 06:07:42;;;;;;;4.27;1.47;;;;;;;;;;5072445;28;20026;-68
2021/05/11 06:10:07;;;;;;;3.97;1.33;;;;;;;;;;5083125;28;20033;-67
2021/05/11 06:12:55;;;;;;;3.10;1.57;;;;;;;;;;5086549;28;20027;-67
2021/05/11 06:18:05;;;;;;;6.43;1.60;;;;;;;;;;5089981;28;20070;-68
2021/05/11 06:20:30;;;;;;;3.17;1.47;;;;;;;;;;5091522;28;20421;-68
2021/05/11 06:22:55;;;;;;;5.00;1.60;;;;;;;;;;5090095;28;20103;-68
2021/05/11 06:25:20;;;;;;;3.40;1.40;;;;;;;;;;5091404;28;20038;-68
2021/05/11 06:27:46;;;;;;;6.03;1.40;;;;;;;;;;5083385;28;20032;-68
2021/05/11 06:30:11;;;;;;;4.57;1.57;;;;;;;;;;5091236;28;20028;-68
2021/05/11 06:32:37;;;;;;;4.83;1.30;;;;;;;;;;5087650;28;20107;-68
2021/05/11 06:35:05;;;;;;;3.27;1.50;;;;;;;;;;5094900;28;20043;-68
2021/05/11 06:37:30;;;;;;;4.77;1.30;;;;;;;;;;5089122;28;20067;-68
2021/05/11 06:39:58;;;;;;;3.77;1.70;;;;;;;;;;5091158;28;20059;-68
2021/05/11 06:42:24;;;;;;;4.07;1.60;;;;;;;;;;5092171;28;20433;-68
2021/05/11 06:55:19;;;;;;;3.00;1.37;;;;;;;;;;5094387;28;20023;-67
2021/05/11 06:57:44;;;;;;;3.70;1.80;;;;;;;;;;5095064;28;20031;-67
2021/05/11 07:00:09;;;;;;;2.67;1.40;;;;;;;;;;5088923;28;20024;-68
2021/05/11 07:02:35;;;;;;;6.17;1.30;;;;;;;;;;5095096;28;20025;-68
2021/05/11 07:05:00;;;;;;;2.13;1.03;;;;;;;;;;5110262;28;20047;-68
2021/05/11 07:07:26;;;;;;;2.90;1.20;;;;;;;;;;5115813;28;20032;-68
2021/05/11 07:10:31;;;;;;;4.90;1.50;;;;;;;;;;5107544;28;20051;-68
2021/05/11 07:15:27;;;;;;;2.67;1.23;;;;;;;;;;5107882;28;20035;-68
2021/05/11 07:18:04;;;;;;;2.73;1.17;;;;;;;;;;5115410;28;20028;-68
2021/05/11 07:20:29;;;;;;;3.67;1.07;;;;;;;;;;5112365;28;20055;-68
2021/05/11 07:22:54;;;;;;;5.23;1.30;;;;;;;;;;5115118;28;20378;-69
2021/05/11 07:25:22;;;;;;;2.57;1.27;;;;;;;;;;5101708;28;20047;-68
2021/05/11 07:28:01;;;;;;;2.57;1.00;;;;;;;;;;5109219;28;20024;-68
2021/05/11 07:30:29;;;;;;;3.00;1.13;;;;;;;;;;5104612;28;20111;-68
2021/05/11 07:32:54;;;;;;;2.83;1.30;;;;;;;;;;5111727;28;20024;-68
2021/05/11 07:35:20;;;;;;;3.67;1.60;;;;;;;;;;5111632;28;20106;-68
2021/05/11 07:37:45;;;;;;;3.10;1.20;;;;;;;;;;5115078;28;20031;-68
2021/05/11 07:40:10;;;;;;;3.40;1.17;;;;;;;;;;5114057;28;20444;-68
2021/05/11 07:42:36;;;;;;;2.43;1.20;;;;;;;;;;5112574;28;20027;-68
2021/05/11 07:45:03;;;;;;;5.50;1.47;;;;;;;;;;5113235;28;20035;-68
2021/05/11 07:50:35;;;;;;;4.07;1.70;;;;;;;;;;5112638;28;20019;-68
2021/05/11 08:04:49;;;;;;;3.00;1.43;;;;;;;;;;5067083;28;20052;-68
2021/05/11 08:10:12;;;;;;;2.37;1.10;;;;;;;;;;5110273;28;20031;-68
2021/05/11 08:15:29;;;;;;;5.63;1.30;;;;;;;;;;5112484;28;20058;-68
2021/05/11 08:28:22;;;;;;;3.90;1.50;;;;;;;;;;5111405;28;20049;-68
2021/05/11 08:30:47;;;;;;;5.73;1.50;;;;;;;;;;5108607;28;20027;-68
2021/05/11 08:33:13;;;;;;;4.10;1.30;;;;;;;;;;5113822;28;20039;-68
2021/05/11 08:35:38;;;;;;;3.30;1.40;;;;;;;;;;5109484;28;20031;-68
2021/05/11 08:38:03;;;;;;;3.17;1.60;;;;;;;;;;5111519;28;20429;-68
2021/05/11 08:40:30;;;;;;;3.23;1.60;;;;;;;;;;5103840;28;20028;-68
2021/05/11 08:42:57;;;;;;;3.80;1.57;;;;;;;;;;5112137;28;20026;-68
2021/05/11 08:48:14;;;;;;;4.87;2.10;;;;;;;;;;5101753;28;20426;-68
2021/05/11 08:50:42;;;;;;;4.53;1.93;;;;;;;;;;5103862;28;20043;-68
2021/05/11 08:53:19;;;;;;;5.67;2.23;;;;;;;;;;5113580;28;20545;-68
2021/05/11 09:16:25;;;;;;;3.20;1.60;;;;;;;;;;5105994;28;20423;-68
2021/05/11 09:26:44;;;;;;;5.57;1.80;;;;;;;;;;5104728;28;20032;-68
2021/05/11 09:32:11;;;;;;;3.13;1.60;;;;;;;;;;5112445;28;20483;-68
2021/05/11 09:34:52;;;;;;;2.85;1.55;;;;;;;;;;5112165;28;20024;-68
2021/05/11 10:48:34;;;;;;;7.13;3.40;;;;;;;;;;5080571;28;20016;-68
2021/05/11 10:51:20;;;;;;;6.80;3.13;;;;;;;;;;5087750;28;20442;-68
2021/05/11 10:53:45;;;;;;;6.30;2.80;;;;;;;;;;5085476;28;20484;-68
2021/05/11 10:56:37;;;;;;;5.27;3.00;;;;;;;;;;5091517;28;20062;-68
2021/05/11 11:01:36;;;;;;;5.00;2.53;;;;;;;;;;5088838;28;20111;-68
2021/05/11 11:04:15;;;;;;;4.53;2.33;;;;;;;;;;5096728;28;20178;-67
2021/05/11 11:07:07;;;;;;;5.77;2.73;;;;;;;;;;5105871;28;20107;-67
2021/05/11 11:09:36;;;;;;;4.63;2.40;;;;;;;;;;5097058;28;20031;-67
2021/05/11 11:12:03;;;;;;;7.87;3.70;;;;;;;;;;5100200;28;20294;-67
2021/05/11 11:14:38;;;;;;;7.23;4.23;;;;;;;;;;5106890;28;20016;-67
2021/05/11 11:17:05;;;;;;;9.53;5.03;;;;;;;;;;5105935;28;20016;-67
2021/05/11 11:19:31;;;;;;;9.63;5.23;;;;;;;;;;5110915;28;20020;-67
2021/05/11 11:24:24;;;;;;;9.67;4.90;;;;;;;;;;5112048;28;20339;-67
2021/05/11 11:26:51;;;;;;;8.20;4.80;;;;;;;;;;5114214;28;20022;-67
2021/05/11 11:29:22;;;;;;;7.53;4.43;;;;;;;;;;5115089;28;20521;-67
2021/05/11 11:31:47;;;;;;;7.07;4.10;;;;;;;;;;5113040;28;20030;-67
2021/05/11 11:34:23;;;;;;;7.43;3.80;;;;;;;;;;5114233;28;20040;-67
2021/05/11 11:36:56;;;;;;;6.07;3.67;;;;;;;;;;5114031;28;20089;-67
2021/05/11 11:39:26;;;;;;;6.73;3.63;;;;;;;;;;5111652;28;20027;-67
2021/05/11 11:41:51;;;;;;;7.83;3.20;;;;;;;;;;5109668;28;20103;-67
2021/05/11 11:44:21;;;;;;;5.43;2.77;;;;;;;;;;5114933;28;20043;-67
2021/05/11 11:46:50;;;;;;;6.70;3.30;;;;;;;;;;5113612;28;20019;-67
2021/05/11 11:49:18;;;;;;;7.30;3.03;;;;;;;;;;5114456;28;20424;-67
2021/05/11 11:51:44;;;;;;;5.37;3.10;;;;;;;;;;5112018;28;20028;-67
2021/05/11 11:54:19;;;;;;;9.50;3.17;;;;;;;;;;5100889;28;20030;-67
2021/05/11 11:59:29;;;;;;;6.47;2.50;;;;;;;;;;5109276;28;20379;-67
2021/05/11 12:01:58;;;;;;;5.00;2.40;;;;;;;;;;5101882;28;20103;-67
2021/05/11 12:04:23;;;;;;;7.07;2.83;;;;;;;;;;5114048;28;20058;-67
2021/05/11 12:06:51;;;;;;;6.43;3.30;;;;;;;;;;5111987;28;20024;-67
2021/05/11 12:09:16;;;;;;;6.23;3.27;;;;;;;;;;5105437;28;20027;-67
2021/05/11 12:11:42;;;;;;;6.70;3.83;;;;;;;;;;5110914;28;20049;-67
2021/05/11 12:14:07;;;;;;;5.17;2.93;;;;;;;;;;5114416;28;20410;-67
2021/05/11 12:16:39;;;;;;;5.43;3.13;;;;;;;;;;5111559;28;20027;-67
2021/05/11 12:21:50;;;;;;;7.00;3.70;;;;;;;;;;5112440;28;20360;-67
2021/05/11 12:24:15;;;;;;;6.10;3.27;;;;;;;;;;5091616;28;20107;-67
2021/05/11 12:26:45;;;;;;;5.87;3.70;;;;;;;;;;5105887;28;20488;-67
2021/05/11 12:29:12;;;;;;;8.10;3.83;;;;;;;;;;5111623;28;20024;-67
2021/05/11 12:31:39;;;;;;;8.07;4.43;;;;;;;;;;5104263;28;20187;-67
2021/05/11 12:34:06;;;;;;;8.63;4.70;;;;;;;;;;5111806;28;20047;-67
2021/05/11 12:36:31;;;;;;;10.70;4.17;;;;;;;;;;5111610;28;20084;-67
2021/05/11 12:39:19;;;;;;;6.83;4.00;;;;;;;;;;5113569;28;20023;-67
2021/05/11 12:41:44;;;;;;;6.73;4.00;;;;;;;;;;5110975;28;20072;-67
2021/05/11 12:44:25;;;;;;;9.37;3.87;;;;;;;;;;5113813;28;20098;-67
2021/05/11 12:46:56;;;;;;;6.73;3.40;;;;;;;;;;5113191;28;20123;-67
2021/05/11 12:49:22;;;;;;;7.47;3.50;;;;;;;;;;5113716;28;20388;-67
2021/05/11 12:51:55;;;;;;;6.90;3.43;;;;;;;;;;5113270;28;20055;-67
2021/05/11 12:54:20;;;;;;;;;;;;;;;;;;5110850;28;20043;-67
2021/05/11 12:59:30;;;;;;;8.70;3.40;;;;;;;;;;5100398;28;20383;-67
2021/05/11 13:23:26;;;;;;;5.60;3.40;;;;;;;;;;5112753;28;20379;-67
2021/05/11 13:25:57;;;;;;;17.20;4.17;;;;;;;;;;5112700;28;20020;-66
2021/05/11 13:28:45;;;;;;;8.43;4.28;;;;;;;;;;5109157;28;20331;-67
2021/05/11 13:31:34;;;;;;;6.33;3.80;;;;;;;;;;5110042;28;20108;-67
2021/05/11 13:34:09;;;;;;;6.60;3.53;;;;;;;;;;5110855;28;20515;-67
2021/05/11 13:36:35;;;;;;;5.70;3.97;;;;;;;;;;5111971;28;20666;-66
2021/05/11 13:39:00;;;;;;;6.77;4.30;;;;;;;;;;5111624;28;20058;-67
2021/05/11 13:41:25;;;;;;;6.93;3.80;;;;;;;;;;5099347;28;20432;-67
2021/05/11 13:43:51;;;;;;;6.53;3.90;;;;;;;;;;5112169;28;20076;-67
2021/05/11 13:46:16;;;;;;;8.80;4.20;;;;;;;;;;5112239;28;20517;-67
2021/05/11 13:48:44;;;;;;;8.40;4.50;;;;;;;;;;5101744;28;20074;-67
2021/05/11 13:51:18;;;;;;;6.90;4.30;;;;;;;;;;5111071;28;20080;-67
2021/05/11 13:53:46;;;;;;;8.57;3.93;;;;;;;;;;5112138;28;20027;-67
2021/05/11 13:56:28;;;;;;;8.67;4.57;;;;;;;;;;5112067;28;20080;-67
2021/05/11 14:04:16;;;;;;;8.00;3.70;;;;;;;;;;5111106;28;20059;-67
2021/05/11 14:06:41;;;;;;;8.10;3.63;;;;;;;;;;5104179;28;20027;-67
2021/05/11 14:09:06;;;;;;;8.63;3.77;;;;;;;;;;5111721;28;20023;-67
2021/05/11 14:11:32;;;;;;;8.47;3.77;;;;;;;;;;5100894;28;20421;-67
2021/05/11 14:13:58;;;;;;;7.40;3.60;;;;;;;;;;5109063;28;20182;-67
2021/05/11 14:16:23;;;;;;;6.10;3.80;;;;;;;;;;5101519;28;20122;-67
2021/05/11 14:18:48;;;;;;;7.70;3.97;;;;;;;;;;5112236;28;20066;-67
2021/05/11 14:21:14;;;;;;;7.40;3.80;;;;;;;;;;5111403;28;20024;-67
2021/05/11 14:23:39;;;;;;;7.10;3.70;;;;;;;;;;5112208;28;20456;-67
2021/05/11 14:26:04;;;;;;;7.10;3.57;;;;;;;;;;5111760;28;20069;-67
2021/05/11 14:28:29;;;;;;;7.47;3.53;;;;;;;;;;5110830;28;20020;-67
2021/05/11 14:30:55;;;;;;;6.00;3.67;;;;;;;;;;5102048;28;20491;-66
2021/05/11 14:33:20;;;;;;;5.80;3.50;;;;;;;;;;5110014;28;20027;-67
2021/05/11 14:35:46;;;;;;;6.73;3.27;;;;;;;;;;5110789;28;20023;-67
2021/05/11 14:38:11;;;;;;;7.00;3.10;;;;;;;;;;5109803;28;20364;-67
2021/05/11 14:40:36;;;;;;;6.77;3.30;;;;;;;;;;5110804;28;20028;-66
2021/05/11 14:43:01;;;;;;;6.63;3.00;;;;;;;;;;5111465;28;20028;-67
2021/05/11 14:45:27;;;;;;;7.30;3.40;;;;;;;;;;5097211;28;20032;-66
2021/05/11 14:47:53;;;;;;;6.60;3.20;;;;;;;;;;5111591;28;20483;-66
2021/05/11 14:50:18;;;;;;;7.40;3.10;;;;;;;;;;5096788;28;20034;-66
2021/05/11 14:52:44;;;;;;;7.27;3.80;;;;;;;;;;5107956;28;20058;-67
2021/05/11 14:55:11;;;;;;;4.83;2.93;;;;;;;;;;5112417;28;20028;-67
2021/05/11 14:57:36;;;;;;;6.10;3.30;;;;;;;;;;5115498;28;20041;-67
2021/05/11 15:00:02;;;;;;;7.17;3.13;;;;;;;;;;5115574;28;20024;-67
2021/05/11 15:02:28;;;;;;;10.60;3.87;;;;;;;;;;5114777;28;20056;-67
2021/05/11 15:04:53;;;;;;;5.63;3.13;;;;;;;;;;5115155;28;20067;-67
2021/05/11 15:07:18;;;;;;;5.47;3.10;;;;;;;;;;5115807;28;20043;-66
2021/05/11 15:09:44;;;;;;;6.90;2.93;;;;;;;;;;5115503;28;20020;-66
2021/05/11 15:12:09;;;;;;;6.10;3.13;;;;;;;;;;5115848;28;20023;-66
2021/05/11 15:14:34;;;;;;;6.30;3.27;;;;;;;;;;5102888;28;20376;-66
2021/05/11 15:19:43;;;;;;;6.53;3.90;;;;;;;;;;5115093;28;20030;-66
2021/05/11 15:22:08;;;;;;;7.00;3.77;;;;;;;;;;5115345;28;20019;-66
2021/05/11 15:24:34;;;;;;;8.33;3.90;;;;;;;;;;5115255;28;20055;-66
2021/05/11 15:26:59;;;;;;;4.60;2.50;;;;;;;;;;5115110;28;20024;-66
2021/05/11 15:29:24;;;;;;;4.20;2.40;;;;;;;;;;5115308;28;20024;-66
2021/05/11 15:31:50;;;;;;;4.70;2.33;;;;;;;;;;5115082;28;20031;-67
2021/05/11 15:34:15;;;;;;;6.37;2.73;;;;;;;;;;5115239;28;20015;-66
2021/05/11 15:36:40;;;;;;;5.30;2.70;;;;;;;;;;5114501;28;20032;-66
2021/05/11 15:39:06;;;;;;;6.20;2.60;;;;;;;;;;5115143;28;20058;-67
2021/05/11 15:41:31;;;;;;;9.53;2.60;;;;;;;;;;5114518;28;20023;-67
2021/05/11 15:43:56;;;;;;;7.07;2.90;;;;;;;;;;5115326;28;20024;-67
2021/05/11 15:46:21;;;;;;;6.30;3.33;;;;;;;;;;5115012;28;20026;-66
2021/05/11 15:48:47;;;;;;;6.90;3.50;;;;;;;;;;5115117;28;20023;-67
2021/05/11 15:51:12;;;;;;;6.23;3.63;;;;;;;;;;5114683;28;20655;-66
2021/05/11 15:53:37;;;;;;;5.37;3.40;;;;;;;;;;5114875;28;20482;-66
2021/05/11 15:56:03;;;;;;;6.37;3.87;;;;;;;;;;5114514;28;20103;-66
2021/05/11 15:58:28;;;;;;;6.70;4.07;;;;;;;;;;5107676;28;20527;-66
2021/05/11 16:00:53;;;;;;;6.07;3.60;;;;;;;;;;5114140;28;20161;-66
2021/05/11 16:03:19;;;;;;;6.90;3.37;;;;;;;;;;5114344;28;20099;-66
2021/05/11 16:05:44;;;;;;;7.13;3.23;;;;;;;;;;5113823;28;20027;-66
2021/05/11 16:08:11;;;;;;;6.37;3.80;;;;;;;;;;5105944;28;20034;-66
2021/05/11 16:10:36;;;;;;;7.77;3.40;;;;;;;;;;5109346;28;20077;-66
2021/05/11 16:13:02;;;;;;;8.10;3.47;;;;;;;;;;5114459;28;20046;-66
2021/05/11 16:15:28;;;;;;;5.93;3.17;;;;;;;;;;5107921;28;20028;-66
2021/05/11 16:17:54;;;;;;;6.30;3.40;;;;;;;;;;5114222;28;20050;-66
2021/05/11 16:20:19;;;;;;;7.33;3.40;;;;;;;;;;5113808;28;20073;-66
2021/05/11 16:22:44;;;;;;;8.40;3.70;;;;;;;;;;5114282;28;20073;-66
2021/05/11 16:25:11;;;;;;;10.30;3.57;;;;;;;;;;5113935;28;20019;-66
2021/05/11 16:27:38;;;;;;;6.20;3.20;;;;;;;;;;5114452;28;20027;-66
2021/05/11 16:30:04;;;;;;;6.67;3.50;;;;;;;;;;5113560;28;20023;-66
2021/05/11 16:32:29;;;;;;;9.50;3.40;;;;;;;;;;5114041;28;20095;-66
2021/05/11 16:34:54;;;;;;;6.07;3.47;;;;;;;;;;5113499;28;20015;-66
2021/05/11 16:37:20;;;;;;;7.40;3.40;;;;;;;;;;5114004;28;20023;-66
2021/05/11 16:39:45;;;;;;;8.80;4.10;;;;;;;;;;5113437;28;20404;-66
2021/05/11 16:42:10;;;;;;;6.87;3.23;;;;;;;;;;5113771;28;20102;-66
2021/05/11 16:44:37;;;;;;;7.93;3.90;;;;;;;;;;5113637;28;20015;-66
2021/05/11 16:47:03;;;;;;;6.50;4.03;;;;;;;;;;5113841;28;20098;-66
2021/05/11 16:49:28;;;;;;;8.93;4.10;;;;;;;;;;5113265;28;20101;-66
2021/05/11 16:51:53;;;;;;;8.07;4.10;;;;;;;;;;5108268;28;20016;-66
2021/05/11 16:54:18;;;;;;;10.77;4.33;;;;;;;;;;5095318;28;20547;-66
2021/05/11 16:56:44;;;;;;;7.93;4.40;;;;;;;;;;5094872;28;20487;-66
2021/05/11 16:59:09;;;;;;;10.70;4.23;;;;;;;;;;5104233;28;20020;-66
2021/05/11 17:01:35;;;;;;;7.70;4.17;;;;;;;;;;5103508;28;20655;-66
2021/05/11 17:04:00;;;;;;;6.50;4.10;;;;;;;;;;5103275;28;20040;-66
2021/05/11 17:06:27;;;;;;;8.27;4.50;;;;;;;;;;5102147;28;20392;-66
2021/05/11 17:08:52;;;;;;;9.10;4.53;;;;;;;;;;5106837;28;20049;-66
2021/05/11 17:11:17;;;;;;;9.63;4.23;;;;;;;;;;5099176;28;20132;-66
2021/05/11 17:13:43;;;;;;;7.63;4.00;;;;;;;;;;5101488;28;20376;-66
2021/05/11 17:16:09;;;;;;;7.43;4.20;;;;;;;;;;5103759;28;20030;-66
2021/05/11 17:18:35;;;;;;;9.50;4.53;;;;;;;;;;5098365;28;20367;-66
2021/05/11 17:21:00;;;;;;;9.50;4.27;;;;;;;;;;5108368;28;20031;-66
2021/05/11 17:23:26;;;;;;;11.40;4.27;;;;;;;;;;5108094;28;20012;-66
2021/05/11 17:25:51;;;;;;;9.10;4.67;;;;;;;;;;5109108;28;20448;-66
2021/05/11 17:28:17;;;;;;;8.27;4.30;;;;;;;;;;5108760;28;20463;-66
2021/05/11 17:30:42;;;;;;;10.27;4.10;;;;;;;;;;5110407;28;20019;-66
2021/05/11 17:33:08;;;;;;;6.80;4.03;;;;;;;;;;5110603;28;20487;-66
2021/05/11 17:35:33;;;;;;;9.50;4.40;;;;;;;;;;5108823;28;20028;-66
2021/05/11 17:38:00;;;;;;;14.37;4.30;;;;;;;;;;5103222;28;20104;-66
2021/05/11 17:40:26;;;;;;;7.87;3.93;;;;;;;;;;5107544;28;20030;-66
2021/05/11 17:42:51;;;;;;;8.07;4.17;;;;;;;;;;5106460;28;20438;-66
2021/05/11 17:45:17;;;;;;;7.63;4.23;;;;;;;;;;5108579;27;20015;-66
2021/05/11 17:47:51;;;;;;;10.33;4.17;;;;;;;;;;5100670;28;20015;-66
2021/05/11 17:50:17;;;;;;;10.97;4.93;;;;;;;;;;5095668;28;20111;-66
2021/05/11 17:52:42;;;;;;;7.10;4.10;;;;;;;;;;5102309;28;20091;-66
2021/05/11 17:55:07;;;;;;;11.37;4.40;;;;;;;;;;5101594;28;20081;-66
2021/05/11 17:57:33;;;;;;;8.27;4.70;;;;;;;;;;5104962;28;20033;-66
2021/05/11 17:59:58;;;;;;;8.73;4.23;;;;;;;;;;5104690;28;20179;-66
2021/05/11 18:02:23;;;;;;;8.57;4.43;;;;;;;;;;5102445;28;20040;-66
2021/05/11 18:04:48;;;;;;;9.70;4.40;;;;;;;;;;5105616;28;20091;-66
2021/05/11 18:07:14;;;;;;;7.70;3.70;;;;;;;;;;5103136;28;20020;-66
2021/05/11 18:09:39;;;;;;;6.73;3.57;;;;;;;;;;5106822;28;20027;-66
2021/05/11 18:12:05;;;;;;;9.27;3.37;;;;;;;;;;5101847;28;20391;-66
2021/05/11 18:14:31;;;;;;;6.73;3.50;;;;;;;;;;5094217;28;20105;-66
2021/05/11 18:16:59;;;;;;;6.53;3.00;;;;;;;;;;5097984;28;20276;-66
2021/05/11 18:19:24;;;;;;;5.87;2.97;;;;;;;;;;5100834;28;20379;-66
2021/05/11 18:21:49;;;;;;;7.83;3.27;;;;;;;;;;5103817;28;20028;-66
2021/05/11 18:24:14;;;;;;;7.27;2.90;;;;;;;;;;5101118;28;20027;-66
2021/05/11 18:26:40;;;;;;;9.33;3.63;;;;;;;;;;5106490;28;20486;-66
2021/05/11 18:29:05;;;;;;;5.70;2.73;;;;;;;;;;5107513;28;20016;-66
2021/05/11 18:31:31;;;;;;;6.83;2.70;;;;;;;;;;5108464;28;20023;-66
2021/05/11 18:33:56;;;;;;;9.13;2.70;;;;;;;;;;5112196;28;20029;-66
2021/05/11 18:39:12;;;;;;;6.27;2.63;;;;;;;;;;5096999;28;20089;-66
2021/05/11 18:41:38;;;;;;;4.83;2.47;;;;;;;;;;5104145;28;20027;-66
2021/05/11 18:44:03;;;;;;;7.13;2.33;;;;;;;;;;5106004;28;20020;-66
2021/05/11 18:46:29;;;;;;;6.70;2.63;;;;;;;;;;5106682;28;20043;-66
2021/05/11 18:48:55;;;;;;;6.47;2.80;;;;;;;;;;5103166;28;20062;-66
2021/05/11 18:51:20;;;;;;;6.10;2.90;;;;;;;;;;5106299;28;20063;-66